Time;durP1;ratioP1;P1;durP2;ratioP2;P2;SDS_P1;SDS_P2;PMS_P1;PMS_P2;Temp;Humidity;BMP_temperature;BMP_pressure;BME280_temperature;BME280_humidity;BME280_pressure;Samples;Min_cycle;Max_cycle;Signal;HPM_P1;HPM_P2
2022/10/27 00:00:06;;;;;;;5.67;2.63;;;;;;;11.61;100.00;101440.31;690438;28;1319;-65
2022/10/27 00:00:32;;;;;;;6.00;2.50;;;;;;;11.69;100.00;101449.06;689743;28;690;-65
2022/10/27 00:00:53;;;;;;;4.85;2.70;;;;;;;11.70;100.00;101446.44;690158;28;4295;-65
2022/10/27 00:01:13;;;;;;;5.03;2.77;;;;;;;11.70;100.00;101445.56;690412;28;947;-65
2022/10/27 00:01:34;;;;;;;4.77;2.50;;;;;;;11.78;100.00;101442.97;690966;28;931;-65
2022/10/27 00:01:54;;;;;;;5.25;2.30;;;;;;;11.81;100.00;101451.72;689917;28;1102;-65
2022/10/27 00:02:15;;;;;;;4.97;2.40;;;;;;;11.82;100.00;101445.59;689459;28;1259;-65
2022/10/27 00:02:35;;;;;;;4.93;2.50;;;;;;;11.81;100.00;101446.50;690449;28;896;-65
2022/10/27 00:02:55;;;;;;;6.72;2.60;;;;;;;11.79;100.00;101444.72;690895;28;781;-65
2022/10/27 00:03:17;;;;;;;5.70;2.50;;;;;;;11.77;100.00;101449.97;690085;28;1065;-65
2022/10/27 00:03:37;;;;;;;5.88;2.45;;;;;;;11.75;100.00;101449.97;692575;28;1011;-65
2022/10/27 00:03:58;;;;;;;4.70;2.50;;;;;;;11.78;100.00;101450.84;695823;28;4290;-65
2022/10/27 00:04:18;;;;;;;5.47;2.60;;;;;;;11.79;100.00;101445.59;695313;28;1098;-65
2022/10/27 00:04:38;;;;;;;4.90;2.80;;;;;;;11.80;100.00;101456.97;696059;28;935;-65
2022/10/27 00:04:59;;;;;;;6.82;2.55;;;;;;;11.83;100.00;101449.97;695823;28;919;-65
2022/10/27 00:05:21;;;;;;;5.40;2.50;;;;;;;11.88;100.00;101445.63;694940;28;912;-65
2022/10/27 00:05:42;;;;;;;4.88;2.47;;;;;;;11.86;100.00;101444.72;693531;28;915;-65
2022/10/27 00:06:04;;;;;;;5.45;2.63;;;;;;;11.85;100.00;101447.34;693340;28;876;-65
2022/10/27 00:06:25;;;;;;;6.07;2.60;;;;;;;11.80;100.00;101452.59;692900;28;1093;-65
2022/10/27 00:06:45;;;;;;;6.23;2.70;;;;;;;11.78;100.00;101450.84;692384;28;4373;-66
2022/10/27 00:07:05;;;;;;;5.60;2.80;;;;;;;11.78;100.00;101451.69;693272;28;1166;-65
2022/10/27 00:07:26;;;;;;;4.47;2.50;;;;;;;11.75;100.00;101449.06;691912;28;1133;-65
2022/10/27 00:07:47;;;;;;;4.83;2.50;;;;;;;11.75;100.00;101444.72;693008;28;865;-65
2022/10/27 00:08:07;;;;;;;5.32;2.50;;;;;;;11.82;100.00;101448.22;690380;28;1068;-65
2022/10/27 00:08:27;;;;;;;5.40;2.63;;;;;;;11.80;100.00;101449.97;692043;28;1019;-65
2022/10/27 00:08:51;;;;;;;4.90;2.57;;;;;;;11.86;100.00;101447.34;691707;28;981;-65
2022/10/27 00:09:11;;;;;;;5.03;2.80;;;;;;;11.92;100.00;101447.38;693040;28;1142;-64
2022/10/27 00:09:32;;;;;;;6.23;2.43;;;;;;;11.92;100.00;101457.88;693181;28;1010;-65
2022/10/27 00:09:52;;;;;;;5.78;2.60;;;;;;;11.92;100.00;101457.88;690435;28;4538;-65
2022/10/27 00:10:13;;;;;;;6.17;2.40;;;;;;;11.95;100.00;101450.91;693123;28;1384;-65
2022/10/27 00:10:33;;;;;;;7.03;2.40;;;;;;;11.97;100.00;101455.28;690454;28;1252;-65
2022/10/27 00:10:58;;;;;;;6.50;2.43;;;;;;;11.95;100.00;101462.28;690444;28;942;-65
2022/10/27 00:11:19;;;;;;;6.25;2.55;;;;;;;12.01;100.00;101456.16;689999;28;1155;-65
2022/10/27 00:11:39;;;;;;;4.50;2.30;;;;;;;12.03;100.00;101454.41;690634;28;1022;-65
2022/10/27 00:12:00;;;;;;;5.57;2.43;;;;;;;11.98;100.00;101450.94;693248;28;1285;-64
2022/10/27 00:12:20;;;;;;;5.05;2.67;;;;;;;12.03;100.00;101455.31;693261;28;996;-65
2022/10/27 00:12:41;;;;;;;4.83;2.50;;;;;;;12.02;100.00;101456.16;695031;28;4440;-65
2022/10/27 00:13:01;;;;;;;4.55;2.50;;;;;;;12.00;100.00;101455.28;695772;28;1204;-65
2022/10/27 00:13:21;;;;;;;6.50;2.80;;;;;;;11.91;100.00;101453.50;693324;28;1084;-64
2022/10/27 00:13:42;;;;;;;5.82;2.67;;;;;;;11.86;100.00;101449.97;693046;28;955;-65
2022/10/27 00:14:02;;;;;;;5.80;2.53;;;;;;;11.84;100.00;101456.97;693340;28;784;-65
2022/10/27 00:14:22;;;;;;;6.90;2.75;;;;;;;11.84;100.00;101453.50;693461;28;990;-65
2022/10/27 00:14:43;;;;;;;7.53;2.63;;;;;;;11.83;100.00;101452.59;693561;28;961;-65
2022/10/27 00:15:04;;;;;;;7.17;2.50;;;;;;;11.81;100.00;101449.09;692247;28;987;-65
2022/10/27 00:15:24;;;;;;;6.32;2.60;;;;;;;11.83;100.00;101455.22;693023;28;875;-65
2022/10/27 00:15:54;;;;;;;5.93;2.60;;;;;;;11.92;100.00;101452.63;692105;28;4271;-65
2022/10/27 00:16:15;;;;;;;6.03;2.47;;;;;;;11.91;100.00;101452.63;692154;28;3611;-65
2022/10/27 00:16:35;;;;;;;5.25;2.40;;;;;;;11.86;100.00;101452.59;692303;28;1891;-65
2022/10/27 00:16:56;;;;;;;5.83;2.53;;;;;;;11.81;100.00;101454.34;693400;28;804;-65
2022/10/27 00:17:16;;;;;;;8.05;2.65;;;;;;;11.77;100.00;101452.59;691249;28;1006;-65
2022/10/27 00:17:37;;;;;;;7.07;2.60;;;;;;;11.74;100.00;101452.56;693076;28;1387;-65
2022/10/27 00:17:57;;;;;;;6.30;2.60;;;;;;;11.75;100.00;101449.06;693206;28;808;-65
2022/10/27 00:18:18;;;;;;;5.83;2.50;;;;;;;11.76;100.00;101450.84;691913;28;1099;-65
2022/10/27 00:18:38;;;;;;;4.80;2.40;;;;;;;11.75;100.00;101455.22;693156;28;4538;-65
2022/10/27 00:19:00;;;;;;;4.73;2.37;;;;;;;11.84;100.00;101451.72;692961;28;1206;-65
2022/10/27 00:19:22;;;;;;;5.18;2.38;;;;;;;11.84;100.00;101451.72;693329;28;1034;-65
2022/10/27 00:19:42;;;;;;;5.47;2.50;;;;;;;11.87;100.00;101451.72;692195;28;1282;-64
2022/10/27 00:20:03;;;;;;;4.77;2.57;;;;;;;11.95;100.00;101448.28;689970;28;856;-65
2022/10/27 00:20:23;;;;;;;5.13;2.50;;;;;;;11.93;100.00;101448.25;690192;28;1289;-66
2022/10/27 00:20:44;;;;;;;5.57;2.55;;;;;;;11.88;100.00;101447.34;690071;28;1182;-66
2022/10/27 00:21:07;;;;;;;6.13;2.47;;;;;;;11.87;100.00;101449.09;690527;28;876;-65
2022/10/27 00:21:28;;;;;;;5.93;2.50;;;;;;;11.88;100.00;101449.97;690286;28;1941;-65
2022/10/27 00:21:50;;;;;;;5.33;2.70;;;;;;;11.84;100.00;101450.88;692486;28;4484;-65
2022/10/27 00:22:11;;;;;;;5.20;2.72;;;;;;;11.84;100.00;101448.25;692903;28;1121;-65
2022/10/27 00:22:31;;;;;;;6.37;2.73;;;;;;;11.84;100.00;101456.97;693508;28;908;-65
2022/10/27 00:22:53;;;;;;;7.13;2.53;;;;;;;11.81;100.00;101450.84;693519;28;860;-65
2022/10/27 00:23:13;;;;;;;5.75;2.40;;;;;;;11.85;100.00;101450.88;692280;28;1044;-65
2022/10/27 00:23:34;;;;;;;5.17;2.20;;;;;;;11.96;100.00;101450.03;693060;28;777;-65
2022/10/27 00:23:55;;;;;;;4.60;2.60;;;;;;;12.05;100.00;101463.16;692920;28;983;-65
2022/10/27 00:24:15;;;;;;;4.72;2.53;;;;;;;12.10;100.00;101456.16;691667;28;1326;-65
2022/10/27 00:24:35;;;;;;;5.63;2.43;;;;;;;12.06;100.00;101450.06;693362;28;860;-65
2022/10/27 00:24:56;;;;;;;6.70;2.60;;;;;;;11.95;100.00;101456.13;692734;28;4502;-65
2022/10/27 00:25:16;;;;;;;5.88;2.53;;;;;;;11.90;100.00;101451.72;691626;28;1095;-65
2022/10/27 00:25:37;;;;;;;6.03;2.67;;;;;;;11.87;100.00;101456.97;692962;28;1019;-65
2022/10/27 00:25:58;;;;;;;5.00;2.50;;;;;;;11.87;100.00;101454.34;692825;28;808;-65
2022/10/27 00:26:20;;;;;;;6.65;2.67;;;;;;;11.93;100.00;101459.63;692486;28;1033;-65
2022/10/27 00:26:40;;;;;;;6.43;2.45;;;;;;;11.91;100.00;101456.09;692982;28;900;-65
2022/10/27 00:27:00;;;;;;;6.40;2.30;;;;;;;11.93;100.00;101459.63;691822;28;833;-66
2022/10/27 00:27:21;;;;;;;5.90;2.50;;;;;;;11.98;100.00;101454.41;692969;28;1139;-65
2022/10/27 00:27:42;;;;;;;7.17;2.93;;;;;;;11.91;100.00;101458.72;689982;28;4391;-65
2022/10/27 00:28:03;;;;;;;6.63;2.72;;;;;;;11.89;100.00;101460.47;686321;28;911;-65
2022/10/27 00:28:24;;;;;;;5.53;2.30;;;;;;;11.85;100.00;101461.34;687166;28;963;-65
2022/10/27 00:28:44;;;;;;;6.55;2.78;;;;;;;11.82;100.00;101463.94;686254;28;813;-65
2022/10/27 00:29:04;;;;;;;7.50;2.80;;;;;;;11.84;100.00;101458.72;684033;28;1249;-65
2022/10/27 00:29:25;;;;;;;6.13;2.70;;;;;;;11.83;100.00;101462.22;684649;28;1257;-65
2022/10/27 00:29:45;;;;;;;5.27;2.50;;;;;;;11.81;100.00;101459.59;688215;28;828;-64
2022/10/27 00:30:06;;;;;;;6.60;2.30;;;;;;;11.84;100.00;101459.59;690561;28;939;-65
2022/10/27 00:30:26;;;;;;;5.47;2.47;;;;;;;11.82;100.00;101461.31;690207;28;880;-65
2022/10/27 00:30:47;;;;;;;7.33;2.50;;;;;;;11.82;100.00;101458.69;689994;28;4622;-65
2022/10/27 00:31:16;;;;;;;6.72;2.58;;;;;;;11.83;100.00;101454.34;692863;28;891;-66
2022/10/27 00:31:36;;;;;;;5.47;2.55;;;;;;;11.81;100.00;101459.59;693381;28;880;-66
2022/10/27 00:31:56;;;;;;;5.23;2.60;;;;;;;11.80;100.00;101460.44;693486;28;860;-65
2022/10/27 00:32:17;;;;;;;5.67;2.50;;;;;;;11.81;100.00;101462.22;692999;28;943;-65
2022/10/27 00:32:37;;;;;;;5.43;2.42;;;;;;;11.84;100.00;101464.81;693209;28;907;-65
2022/10/27 00:32:57;;;;;;;5.80;2.23;;;;;;;11.89;100.00;101460.47;691759;28;1380;-65
2022/10/27 00:33:18;;;;;;;5.28;2.30;;;;;;;11.91;100.00;101465.72;692112;28;963;-65
2022/10/27 00:33:39;;;;;;;5.33;2.30;;;;;;;11.91;100.00;101457.88;692639;28;4622;-65
2022/10/27 00:33:59;;;;;;;4.60;2.50;;;;;;;11.90;100.00;101461.34;693405;28;923;-65
2022/10/27 00:34:19;;;;;;;4.80;2.40;;;;;;;11.95;100.00;101466.63;692724;28;1008;-65
2022/10/27 00:34:40;;;;;;;5.13;2.28;;;;;;;11.95;100.00;101466.63;692357;28;1026;-65
2022/10/27 00:35:00;;;;;;;5.53;2.33;;;;;;;11.92;100.00;101470.06;693122;28;935;-65
2022/10/27 00:35:21;;;;;;;5.40;2.37;;;;;;;11.94;100.00;101455.28;691043;28;1152;-65
2022/10/27 00:35:41;;;;;;;4.80;2.30;;;;;;;11.96;100.00;101457.91;693893;28;844;-65
2022/10/27 00:36:07;;;;;;;4.28;2.05;;;;;;;11.90;100.00;101463.97;693949;28;995;-65
2022/10/27 00:36:27;;;;;;;7.35;2.63;;;;;;;11.87;100.00;101464.81;693194;28;1256;-64
2022/10/27 00:36:48;;;;;;;6.07;2.53;;;;;;;11.84;100.00;101464.81;692384;28;4384;-65
2022/10/27 00:37:08;;;;;;;6.90;2.80;;;;;;;11.92;100.00;101465.72;694377;28;1125;-65
2022/10/27 00:37:28;;;;;;;6.13;2.70;;;;;;;11.97;100.00;101459.66;693601;28;879;-65
2022/10/27 00:37:49;;;;;;;5.53;2.60;;;;;;;11.96;100.00;101463.13;693367;28;856;-64
2022/10/27 00:38:09;;;;;;;5.70;2.43;;;;;;;11.91;100.00;101460.47;692259;28;1240;-66
2022/10/27 00:38:29;;;;;;;5.55;2.30;;;;;;;11.87;100.00;101458.72;693376;28;998;-65
2022/10/27 00:38:54;;;;;;;5.57;2.30;;;;;;;11.83;100.00;101455.22;692507;28;5247;-66
2022/10/27 00:39:15;;;;;;;5.88;2.60;;;;;;;11.78;100.00;101456.94;692592;28;946;-65
2022/10/27 00:39:35;;;;;;;5.55;2.50;;;;;;;11.78;100.00;101456.94;693349;28;944;-65
2022/10/27 00:39:55;;;;;;;5.93;2.43;;;;;;;11.75;100.00;101455.22;689544;28;4396;-65
2022/10/27 00:40:16;;;;;;;8.00;2.60;;;;;;;11.74;100.00;101461.31;690468;28;896;-65
2022/10/27 00:40:37;;;;;;;6.10;2.40;;;;;;;11.75;100.00;101459.56;691413;28;963;-66
2022/10/27 00:40:57;;;;;;;5.78;2.70;;;;;;;11.75;100.00;101460.44;692597;28;994;-65
2022/10/27 00:41:28;;;;;;;6.70;2.70;;;;;;;11.76;100.00;101464.78;693060;28;1079;-65
2022/10/27 00:41:49;;;;;;;5.45;2.50;;;;;;;11.80;100.00;101464.81;692379;28;904;-65
2022/10/27 00:42:13;;;;;;;7.20;2.35;;;;;;;11.81;100.00;101456.06;693202;28;936;-65
2022/10/27 00:42:33;;;;;;;4.63;2.38;;;;;;;11.83;100.00;101463.06;692793;28;1002;-65
2022/10/27 00:42:54;;;;;;;5.72;2.42;;;;;;;11.89;100.00;101459.59;692706;28;4592;-65
2022/10/27 00:43:34;;;;;;;4.83;2.37;;;;;;;11.96;100.00;101465.75;692303;28;1090;-65
2022/10/27 00:43:56;;;;;;;5.68;2.55;;;;;;;12.02;100.00;101461.41;692078;28;1484;-65
2022/10/27 00:44:35;;;;;;;5.30;2.40;;;;;;;11.95;100.00;101461.38;693134;28;990;-64
2022/10/27 00:44:55;;;;;;;5.88;2.50;;;;;;;11.89;100.00;101463.09;692938;28;1337;-65
2022/10/27 00:45:15;;;;;;;5.75;2.50;;;;;;;11.87;100.00;101464.81;693030;28;1127;-65
2022/10/27 00:45:36;;;;;;;5.40;2.50;;;;;;;11.86;100.00;101460.44;693519;28;848;-65
2022/10/27 00:46:01;;;;;;;7.40;2.40;;;;;;;11.84;100.00;101467.44;692622;28;4736;-65
2022/10/27 00:46:26;;;;;;;6.97;2.50;;;;;;;11.82;100.00;101469.16;690525;28;1173;-65
2022/10/27 00:46:47;;;;;;;6.78;2.60;;;;;;;11.81;100.00;101467.44;692902;28;963;-65
2022/10/27 00:47:20;;;;;;;6.47;2.50;;;;;;;11.80;100.00;101470.94;691885;28;1447;-65
2022/10/27 00:47:41;;;;;;;4.75;2.30;;;;;;;11.79;100.00;101463.94;692559;28;813;-65
2022/10/27 00:48:02;;;;;;;6.23;2.50;;;;;;;11.75;100.00;101460.44;693927;28;947;-65
2022/10/27 00:48:24;;;;;;;6.95;2.45;;;;;;;11.71;100.00;101463.03;693398;28;1266;-65
2022/10/27 00:48:46;;;;;;;7.00;2.40;;;;;;;11.69;100.00;101462.16;691030;28;4279;-65
2022/10/27 00:49:13;;;;;;;7.35;2.40;;;;;;;11.69;100.00;101467.41;690638;28;852;-65
2022/10/27 00:49:44;;;;;;;6.10;2.60;;;;;;;11.78;100.00;101467.41;691895;28;1021;-66
2022/10/27 00:50:22;;;;;;;4.43;2.15;;;;;;;11.88;100.00;101466.59;691992;28;1069;-65
2022/10/27 00:50:44;;;;;;;6.53;2.40;;;;;;;11.98;100.00;101472.75;693177;28;1015;-65
2022/10/27 00:51:05;;;;;;;6.70;2.58;;;;;;;11.96;100.00;101461.38;693365;28;1037;-70
2022/10/27 00:51:25;;;;;;;7.33;2.60;;;;;;;11.94;100.00;101471.00;692746;28;1098;-65
2022/10/27 00:51:54;;;;;;;6.13;2.40;;;;;;;11.91;100.00;101470.97;692586;28;4396;-65
2022/10/27 00:52:28;;;;;;;6.45;2.50;;;;;;;11.82;100.00;101468.31;693100;28;1114;-66
2022/10/27 00:52:54;;;;;;;6.40;2.67;;;;;;;11.77;100.00;101468.31;692588;28;982;-66
2022/10/27 00:53:15;;;;;;;6.32;2.70;;;;;;;11.72;100.00;101468.28;690990;28;1067;-65
2022/10/27 00:53:36;;;;;;;6.43;2.70;;;;;;;11.64;100.00;101466.50;693158;28;923;-65
2022/10/27 00:53:56;;;;;;;5.60;2.70;;;;;;;11.60;100.00;101473.47;693307;28;934;-65
2022/10/27 00:54:19;;;;;;;5.22;2.60;;;;;;;11.61;100.00;101466.50;693098;28;1004;-65
2022/10/27 00:54:41;;;;;;;6.18;2.40;;;;;;;11.63;100.00;101463.03;692445;28;4294;-66
2022/10/27 00:55:07;;;;;;;6.40;2.28;;;;;;;11.69;100.00;101470.03;691273;28;1070;-65
2022/10/27 00:55:33;;;;;;;6.20;2.60;;;;;;;11.69;100.00;101464.78;688029;28;1174;-65
2022/10/27 00:55:53;;;;;;;6.68;2.38;;;;;;;11.66;100.00;101460.41;686733;28;805;-66
2022/10/27 00:56:15;;;;;;;5.30;2.30;;;;;;;11.66;100.00;101464.75;691242;28;1097;-66
2022/10/27 00:56:36;;;;;;;5.85;2.60;;;;;;;11.63;100.00;101464.75;689856;28;1918;-65
2022/10/27 00:56:57;;;;;;;5.53;2.28;;;;;;;11.63;100.00;101468.25;692304;28;1419;-65
2022/10/27 00:57:18;;;;;;;5.20;2.47;;;;;;;11.63;100.00;101460.41;691070;28;1350;-65
2022/10/27 00:57:39;;;;;;;5.53;2.60;;;;;;;11.72;100.00;101465.66;690279;28;1136;-65
2022/10/27 00:58:05;;;;;;;4.70;2.30;;;;;;;11.73;100.00;101463.94;690073;28;4801;-65
2022/10/27 00:58:26;;;;;;;4.97;2.33;;;;;;;11.69;100.00;101464.78;690268;28;899;-65
2022/10/27 00:58:47;;;;;;;4.37;2.30;;;;;;;11.66;100.00;101465.66;687506;28;1354;-65
2022/10/27 00:59:07;;;;;;;4.95;2.50;;;;;;;11.64;100.00;101461.28;686671;28;1149;-65
2022/10/27 00:59:28;;;;;;;5.82;2.60;;;;;;;11.61;100.00;101458.66;691600;28;884;-65
2022/10/27 00:59:48;;;;;;;5.53;2.50;;;;;;;11.62;100.00;101460.41;692784;28;864;-65
2022/10/27 01:00:09;;;;;;;6.70;2.63;;;;;;;11.60;100.00;101462.97;692587;28;1246;-65
2022/10/27 01:00:30;;;;;;;6.55;2.60;;;;;;;11.59;100.00;101462.13;693364;28;979;-65
2022/10/27 01:00:50;;;;;;;5.72;2.50;;;;;;;11.59;100.00;101453.41;692771;28;4356;-65
2022/10/27 01:01:12;;;;;;;7.53;2.50;;;;;;;11.58;100.00;101460.38;693040;28;979;-65
2022/10/27 01:01:32;;;;;;;8.13;2.55;;;;;;;11.58;100.00;101460.38;693443;28;907;-65
2022/10/27 01:01:54;;;;;;;5.60;2.50;;;;;;;11.58;100.00;101457.75;692709;28;1113;-65
2022/10/27 01:02:15;;;;;;;8.15;2.58;;;;;;;11.58;100.00;101456.88;692139;28;1490;-65
2022/10/27 01:02:36;;;;;;;7.25;2.50;;;;;;;11.56;100.00;101463.84;693528;28;923;-66
2022/10/27 01:02:57;;;;;;;6.47;2.40;;;;;;;11.55;100.00;101462.97;692725;28;921;-65
2022/10/27 01:03:21;;;;;;;5.13;2.30;;;;;;;11.55;100.00;101456.88;692315;28;1081;-65
2022/10/27 01:03:42;;;;;;;5.68;2.30;;;;;;;11.53;100.00;101469.97;691800;28;4301;-65
2022/10/27 01:04:04;;;;;;;5.82;2.40;;;;;;;11.54;100.00;101462.97;693228;28;932;-66
2022/10/27 01:04:34;;;;;;;5.60;2.35;;;;;;;11.53;100.00;101458.59;693330;28;983;-65
2022/10/27 01:05:01;;;;;;;5.53;2.30;;;;;;;11.51;100.00;101455.97;692948;28;943;-65
2022/10/27 01:05:24;;;;;;;5.43;2.40;;;;;;;11.49;100.00;101460.34;691642;28;1082;-65
2022/10/27 01:05:44;;;;;;;5.10;2.50;;;;;;;11.47;100.00;101454.22;693007;28;1062;-65
2022/10/27 01:06:05;;;;;;;6.38;2.42;;;;;;;11.46;100.00;101462.94;692773;28;864;-65
2022/10/27 01:06:26;;;;;;;6.33;2.57;;;;;;;11.51;100.00;101458.59;690052;28;1257;-66
2022/10/27 01:06:46;;;;;;;5.78;2.58;;;;;;;11.52;100.00;101460.34;689853;28;4312;-65
2022/10/27 01:07:07;;;;;;;7.43;2.63;;;;;;;11.50;100.00;101461.22;689907;28;980;-66
2022/10/27 01:07:28;;;;;;;8.70;2.63;;;;;;;11.47;100.00;101455.97;690282;28;864;-65
2022/10/27 01:07:53;;;;;;;7.07;2.38;;;;;;;11.45;100.00;101455.06;690539;28;852;-66
2022/10/27 01:08:16;;;;;;;6.43;2.42;;;;;;;11.43;100.00;101454.22;693030;28;1116;-65
2022/10/27 01:08:38;;;;;;;7.28;2.60;;;;;;;11.44;100.00;101458.56;695910;28;1049;-65
2022/10/27 01:08:59;;;;;;;6.30;2.50;;;;;;;11.41;100.00;101456.81;690279;28;1226;-65
2022/10/27 01:09:20;;;;;;;5.88;2.40;;;;;;;11.44;100.00;101458.56;692364;28;1099;-65
2022/10/27 01:09:42;;;;;;;4.43;2.30;;;;;;;11.42;100.00;101450.69;691094;28;5435;-66
2022/10/27 01:10:03;;;;;;;4.90;2.53;;;;;;;11.41;100.00;101449.84;690381;28;977;-65
2022/10/27 01:10:24;;;;;;;5.25;2.53;;;;;;;11.42;100.00;101450.69;689714;28;904;-66
2022/10/27 01:10:45;;;;;;;5.93;2.20;;;;;;;11.39;100.00;101455.94;690662;28;841;-65
2022/10/27 01:11:05;;;;;;;5.20;2.53;;;;;;;11.36;100.00;101450.69;693207;28;1018;-65
2022/10/27 01:11:25;;;;;;;5.60;2.50;;;;;;;11.35;100.00;101454.16;693214;28;1529;-65
2022/10/27 01:11:46;;;;;;;6.50;2.47;;;;;;;11.33;100.00;101455.91;693512;28;868;-66
2022/10/27 01:12:06;;;;;;;5.87;2.50;;;;;;;11.33;100.00;101453.28;692646;28;1066;-65
2022/10/27 01:12:26;;;;;;;7.40;2.73;;;;;;;11.35;100.00;101455.06;692817;28;1271;-65
2022/10/27 01:12:47;;;;;;;6.40;2.55;;;;;;;11.38;100.00;101452.44;692341;28;4671;-65
2022/10/27 01:13:08;;;;;;;6.15;2.53;;;;;;;11.41;100.00;101448.97;692827;28;1287;-65
2022/10/27 01:13:29;;;;;;;5.60;2.50;;;;;;;11.37;100.00;101460.28;693254;28;944;-66
2022/10/27 01:13:49;;;;;;;5.63;2.40;;;;;;;11.37;100.00;101457.69;688857;28;979;-65
2022/10/27 01:14:10;;;;;;;5.57;2.40;;;;;;;11.38;100.00;101448.94;689895;28;1249;-65
2022/10/27 01:14:30;;;;;;;7.03;2.80;;;;;;;11.40;100.00;101452.44;690800;28;793;-65
2022/10/27 01:14:51;;;;;;;7.38;2.70;;;;;;;11.43;100.00;101449.84;693282;28;817;-65
2022/10/27 01:15:12;;;;;;;6.93;2.77;;;;;;;11.47;100.00;101451.59;692628;28;1118;-65
2022/10/27 01:15:53;;;;;;;5.28;2.67;;;;;;;11.47;100.00;101448.97;690478;28;1482;-65
2022/10/27 01:16:37;;;;;;;6.95;2.75;;;;;;;11.52;100.00;101447.25;691576;28;4753;-65
2022/10/27 01:17:03;;;;;;;4.63;2.45;;;;;;;11.51;100.00;101455.97;692479;28;880;-65
2022/10/27 01:17:43;;;;;;;5.43;2.70;;;;;;;11.50;100.00;101451.59;692221;28;1230;-65
2022/10/27 01:18:18;;;;;;;4.93;2.80;;;;;;;11.50;100.00;101448.97;692522;28;842;-66
2022/10/27 01:19:16;;;;;;;5.28;2.50;;;;;;;11.52;100.00;101452.50;692610;28;5287;-65
2022/10/27 01:20:04;;;;;;;5.07;2.50;;;;;;;11.56;100.00;101459.50;692373;28;1197;-65
2022/10/27 01:20:47;;;;;;;6.00;2.40;;;;;;;11.64;100.00;101456.03;692617;28;1653;-66
2022/10/27 01:21:34;;;;;;;7.32;2.22;;;;;;;11.68;100.00;101453.41;692980;28;920;-65
2022/10/27 01:22:19;;;;;;;5.50;2.50;;;;;;;11.67;100.00;101456.94;692434;28;4358;-65
2022/10/27 01:22:44;;;;;;;6.65;2.60;;;;;;;11.72;100.00;101454.31;693092;28;876;-65
2022/10/27 01:23:22;;;;;;;7.60;2.63;;;;;;;11.68;100.00;101453.41;692339;28;986;-65
2022/10/27 01:23:58;;;;;;;5.85;2.45;;;;;;;11.70;100.00;101450.78;693165;28;888;-65
2022/10/27 01:25:12;;;;;;;6.05;2.42;;;;;;;11.69;100.00;101452.56;692725;28;1018;-66
2022/10/27 01:25:46;;;;;;;5.28;2.30;;;;;;;11.78;100.00;101450.84;692488;28;4931;-66
2022/10/27 01:26:31;;;;;;;7.28;2.45;;;;;;;11.83;100.00;101457.84;690142;28;954;-65
2022/10/27 01:26:57;;;;;;;5.95;2.50;;;;;;;11.97;100.00;101457.91;689908;28;1099;-64
2022/10/27 01:27:42;;;;;;;6.70;2.50;;;;;;;11.97;100.00;101462.28;688790;28;1039;-65
2022/10/27 01:28:17;;;;;;;8.35;2.50;;;;;;;11.90;100.00;101458.72;692128;28;1272;-65
2022/10/27 01:29:16;;;;;;;7.57;2.60;;;;;;;11.92;100.00;101455.25;691999;28;919;-65
2022/10/27 01:30:02;;;;;;;7.22;2.42;;;;;;;11.99;100.00;101465.75;693396;28;928;-66
2022/10/27 01:30:23;;;;;;;4.90;2.25;;;;;;;12.03;100.00;101460.53;692576;28;925;-66
2022/10/27 01:31:10;;;;;;;5.60;2.25;;;;;;;12.07;100.00;101457.06;692927;28;4376;-65
2022/10/27 01:31:39;;;;;;;7.03;2.50;;;;;;;12.12;100.00;101459.69;693247;28;832;-65
2022/10/27 01:32:32;;;;;;;5.30;2.40;;;;;;;12.18;100.00;101464.91;695767;28;2292;-65
2022/10/27 01:33:13;;;;;;;5.45;2.40;;;;;;;12.19;100.00;101457.94;692965;28;1237;-66
2022/10/27 01:33:44;;;;;;;6.40;2.33;;;;;;;12.20;100.00;101457.94;690305;28;794;-66
2022/10/27 01:34:19;;;;;;;5.78;2.33;;;;;;;12.21;100.00;101462.31;688703;28;4795;-65
2022/10/27 01:34:59;;;;;;;7.95;2.53;;;;;;;12.26;100.00;101457.06;689585;28;1221;-65
2022/10/27 01:35:41;;;;;;;5.95;2.33;;;;;;;12.34;100.00;101459.72;688894;28;1067;-65
2022/10/27 01:36:06;;;;;;;6.68;2.65;;;;;;;12.38;100.00;101466.72;692828;28;852;-65
2022/10/27 01:36:40;;;;;;;6.60;2.50;;;;;;;12.41;100.00;101461.47;692534;28;1095;-65
2022/10/27 01:37:09;;;;;;;6.35;2.30;;;;;;;12.46;100.00;101451.84;692637;28;4731;-65
2022/10/27 01:37:29;;;;;;;4.80;2.42;;;;;;;12.53;100.00;101456.22;691904;28;912;-65
2022/10/27 01:38:12;;;;;;;5.43;2.60;;;;;;;12.58;100.00;101459.69;692781;28;971;-65
2022/10/27 01:38:44;;;;;;;4.28;2.40;;;;;;;12.55;100.00;101456.22;690999;28;2094;-66
2022/10/27 01:39:05;;;;;;;6.03;2.25;;;;;;;12.53;100.00;101456.22;690011;28;996;-65
2022/10/27 01:39:33;;;;;;;6.43;2.50;;;;;;;12.51;100.00;101454.47;691121;28;1232;-65
2022/10/27 01:40:15;;;;;;;4.15;2.20;;;;;;;12.49;100.00;101464.06;688519;28;4316;-65
2022/10/27 01:40:46;;;;;;;6.30;2.20;;;;;;;12.47;100.00;101461.44;693461;28;1027;-66
2022/10/27 01:41:15;;;;;;;7.95;2.40;;;;;;;12.49;100.00;101458.81;691814;28;915;-65
2022/10/27 01:42:17;;;;;;;6.32;2.40;;;;;;;12.48;100.00;101462.34;693230;28;878;-65
2022/10/27 01:42:50;;;;;;;6.00;2.20;;;;;;;12.46;100.00;101454.47;691866;28;994;-66
2022/10/27 01:43:19;;;;;;;6.05;2.60;;;;;;;12.46;100.00;101459.72;692304;28;4742;-65
2022/10/27 01:43:39;;;;;;;6.00;2.53;;;;;;;12.44;100.00;101457.06;693325;28;895;-66
2022/10/27 01:44:08;;;;;;;5.83;2.37;;;;;;;12.45;100.00;101455.34;693283;28;1291;-66
2022/10/27 01:44:42;;;;;;;6.07;2.22;;;;;;;12.45;100.00;101452.72;693394;28;1010;-65
2022/10/27 01:45:06;;;;;;;5.78;2.38;;;;;;;12.44;100.00;101451.81;693319;28;776;-66
2022/10/27 01:45:31;;;;;;;7.60;2.38;;;;;;;12.43;100.00;101454.44;694548;28;898;-66
2022/10/27 01:45:53;;;;;;;6.05;2.25;;;;;;;12.44;100.00;101453.59;695098;28;4398;-66
2022/10/27 01:46:15;;;;;;;5.90;2.33;;;;;;;12.45;100.00;101452.72;692462;28;1086;-65
2022/10/27 01:46:36;;;;;;;7.43;2.58;;;;;;;12.45;100.00;101457.97;690975;28;1463;-65
2022/10/27 01:46:57;;;;;;;4.78;2.25;;;;;;;12.45;100.00;101452.72;691070;28;872;-65
2022/10/27 01:47:18;;;;;;;4.90;2.25;;;;;;;12.43;100.00;101441.34;690914;28;1058;-65
2022/10/27 01:47:39;;;;;;;5.28;2.50;;;;;;;12.42;100.00;101457.97;691981;28;788;-65
2022/10/27 01:48:01;;;;;;;5.35;2.38;;;;;;;12.44;100.00;101450.97;691902;28;1238;-66
2022/10/27 01:48:22;;;;;;;6.35;2.22;;;;;;;12.43;100.00;101449.22;692343;28;1186;-65
2022/10/27 01:48:44;;;;;;;6.60;2.40;;;;;;;12.40;100.00;101451.84;692388;28;4371;-66
2022/10/27 01:49:06;;;;;;;6.10;2.53;;;;;;;12.43;100.00;101451.81;693203;28;906;-66
2022/10/27 01:49:40;;;;;;;5.55;2.30;;;;;;;12.43;100.00;101454.44;692894;28;1288;-65
2022/10/27 01:50:00;;;;;;;6.82;2.33;;;;;;;12.38;100.00;101451.84;692624;28;1437;-66
2022/10/27 01:50:31;;;;;;;6.15;2.55;;;;;;;12.34;100.00;101449.22;692963;28;1682;-65
2022/10/27 01:50:51;;;;;;;6.65;2.58;;;;;;;12.30;100.00;101456.19;692280;28;867;-65
2022/10/27 01:51:13;;;;;;;5.93;2.40;;;;;;;12.27;100.00;101454.44;693103;28;940;-66
2022/10/27 01:51:33;;;;;;;4.75;2.30;;;;;;;12.27;100.00;101457.06;691913;28;912;-66
2022/10/27 01:52:04;;;;;;;5.23;2.40;;;;;;;12.29;100.00;101454.44;692263;28;4351;-66
2022/10/27 01:52:54;;;;;;;5.18;2.05;;;;;;;12.23;100.00;101465.81;693972;28;887;-65
2022/10/27 01:53:14;;;;;;;5.72;2.22;;;;;;;12.19;100.00;101457.94;684628;28;1443;-65
2022/10/27 01:53:40;;;;;;;5.67;2.47;;;;;;;12.16;100.00;101468.44;689031;28;1135;-65
2022/10/27 01:54:03;;;;;;;11.32;6.10;;;;;;;12.14;100.00;101457.91;694795;28;963;-66
2022/10/27 01:54:23;;;;;;;10.20;5.68;;;;;;;12.13;100.00;101460.53;693106;28;919;-65
2022/10/27 01:54:43;;;;;;;7.07;3.70;;;;;;;12.11;100.00;101460.53;692459;28;5009;-65
2022/10/27 01:55:05;;;;;;;6.90;3.03;;;;;;;12.13;100.00;101464.06;693079;28;1030;-66
2022/10/27 01:55:26;;;;;;;7.20;3.08;;;;;;;12.16;100.00;101466.69;690151;28;1089;-66
2022/10/27 01:55:55;;;;;;;6.45;3.10;;;;;;;12.17;100.00;101457.06;689785;28;1005;-65
2022/10/27 01:56:42;;;;;;;7.20;2.92;;;;;;;12.15;100.00;101462.28;690205;28;1019;-65